sensor_id;sensor_type;location;lat;lon;timestamp;temperature;humidity
50989;DHT22;37008;52.210;21.112;2022-12-13T00:00:34;-1.20;99.90
50989;DHT22;37008;52.210;21.112;2022-12-13T00:02:59;-1.30;99.90
50989;DHT22;37008;52.210;21.112;2022-12-13T00:05:25;-1.40;99.90
50989;DHT22;37008;52.210;21.112;2022-12-13T00:07:50;-1.40;99.90
50989;DHT22;37008;52.210;21.112;2022-12-13T00:10:16;-1.40;99.90
50989;DHT22;37008;52.210;21.112;2022-12-13T00:12:41;-1.40;99.90
50989;DHT22;37008;52.210;21.112;2022-12-13T00:15:07;-1.30;99.90
50989;DHT22;37008;52.210;21.112;2022-12-13T00:17:33;-1.40;99.90
50989;DHT22;37008;52.210;21.112;2022-12-13T00:19:59;-1.30;99.90
50989;DHT22;37008;52.210;21.112;2022-12-13T00:22:25;-1.40;99.90
50989;DHT22;37008;52.210;21.112;2022-12-13T00:24:53;-1.40;99.90
50989;DHT22;37008;52.210;21.112;2022-12-13T00:27:20;-1.40;99.90
50989;DHT22;37008;52.210;21.112;2022-12-13T00:29:45;-1.40;99.90
50989;DHT22;37008;52.210;21.112;2022-12-13T00:32:11;-1.40;99.90
50989;DHT22;37008;52.210;21.112;2022-12-13T00:34:36;-1.50;99.90
50989;DHT22;37008;52.210;21.112;2022-12-13T00:37:02;-1.40;99.90
50989;DHT22;37008;52.210;21.112;2022-12-13T00:39:28;-1.40;99.90
50989;DHT22;37008;52.210;21.112;2022-12-13T00:41:53;-1.50;99.90
50989;DHT22;37008;52.210;21.112;2022-12-13T00:44:19;-1.50;99.90
50989;DHT22;37008;52.210;21.112;2022-12-13T00:46:45;-1.50;99.90
50989;DHT22;37008;52.210;21.112;2022-12-13T00:49:11;-1.50;99.90
50989;DHT22;37008;52.210;21.112;2022-12-13T00:51:37;-1.50;99.90
50989;DHT22;37008;52.210;21.112;2022-12-13T00:54:03;-1.50;99.90
50989;DHT22;37008;52.210;21.112;2022-12-13T00:56:31;-1.50;99.90
50989;DHT22;37008;52.210;21.112;2022-12-13T00:58:57;-1.50;99.90
50989;DHT22;37008;52.210;21.112;2022-12-13T01:01:31;-1.50;99.90
50989;DHT22;37008;52.210;21.112;2022-12-13T01:03:59;-1.50;99.90
50989;DHT22;37008;52.210;21.112;2022-12-13T01:06:28;-1.50;99.90
50989;DHT22;37008;52.210;21.112;2022-12-13T01:08:56;-1.60;99.90
50989;DHT22;37008;52.210;21.112;2022-12-13T01:11:21;-1.60;99.90
50989;DHT22;37008;52.210;21.112;2022-12-13T01:13:47;-1.60;99.90
50989;DHT22;37008;52.210;21.112;2022-12-13T01:16:13;-1.60;99.90
50989;DHT22;37008;52.210;21.112;2022-12-13T01:18:40;-1.60;99.90
50989;DHT22;37008;52.210;21.112;2022-12-13T01:21:09;-1.60;99.90
50989;DHT22;37008;52.210;21.112;2022-12-13T01:23:36;-1.60;99.90
50989;DHT22;37008;52.210;21.112;2022-12-13T01:26:04;-1.60;99.90
50989;DHT22;37008;52.210;21.112;2022-12-13T01:28:30;-1.60;99.90
50989;DHT22;37008;52.210;21.112;2022-12-13T01:30:56;-1.60;99.90
50989;DHT22;37008;52.210;21.112;2022-12-13T01:33:22;-1.60;99.90
50989;DHT22;37008;52.210;21.112;2022-12-13T01:35:48;-1.60;99.90
50989;DHT22;37008;52.210;21.112;2022-12-13T01:38:14;-1.70;99.90
50989;DHT22;37008;52.210;21.112;2022-12-13T01:40:44;-1.60;99.90
50989;DHT22;37008;52.210;21.112;2022-12-13T01:43:12;-1.60;99.90
50989;DHT22;37008;52.210;21.112;2022-12-13T01:45:38;-1.60;99.90
50989;DHT22;37008;52.210;21.112;2022-12-13T01:48:06;-1.50;99.90
50989;DHT22;37008;52.210;21.112;2022-12-13T01:50:38;-1.50;99.90
50989;DHT22;37008;52.210;21.112;2022-12-13T01:53:06;-1.40;99.90
50989;DHT22;37008;52.210;21.112;2022-12-13T01:55:35;-1.40;99.90
50989;DHT22;37008;52.210;21.112;2022-12-13T01:58:02;-1.40;99.90
50989;DHT22;37008;52.210;21.112;2022-12-13T02:00:29;-1.30;99.90
50989;DHT22;37008;52.210;21.112;2022-12-13T02:02:57;-1.20;99.90
50989;DHT22;37008;52.210;21.112;2022-12-13T02:05:33;-1.20;99.90
50989;DHT22;37008;52.210;21.112;2022-12-13T02:08:01;-1.20;99.90
50989;DHT22;37008;52.210;21.112;2022-12-13T02:10:28;-1.20;99.90
50989;DHT22;37008;52.210;21.112;2022-12-13T02:12:54;-1.20;99.90
50989;DHT22;37008;52.210;21.112;2022-12-13T02:15:20;-1.20;99.90
50989;DHT22;37008;52.210;21.112;2022-12-13T02:20:42;-1.20;99.90
50989;DHT22;37008;52.210;21.112;2022-12-13T02:31:46;-1.20;99.90
50989;DHT22;37008;52.210;21.112;2022-12-13T02:34:22;-1.20;99.90
50989;DHT22;37008;52.210;21.112;2022-12-13T02:39:23;-1.20;99.90
50989;DHT22;37008;52.210;21.112;2022-12-13T02:41:59;-1.20;99.90
50989;DHT22;37008;52.210;21.112;2022-12-13T02:44:34;-1.20;99.90
50989;DHT22;37008;52.210;21.112;2022-12-13T02:47:13;-1.20;99.90
50989;DHT22;37008;52.210;21.112;2022-12-13T02:49:42;-1.20;99.90
50989;DHT22;37008;52.210;21.112;2022-12-13T02:52:13;-1.20;99.90
50989;DHT22;37008;52.210;21.112;2022-12-13T02:54:40;-1.20;99.90
50989;DHT22;37008;52.210;21.112;2022-12-13T02:59:55;-1.20;99.90
50989;DHT22;37008;52.210;21.112;2022-12-13T03:03:00;-1.10;99.90
50989;DHT22;37008;52.210;21.112;2022-12-13T03:05:26;-1.10;99.90
50989;DHT22;37008;52.210;21.112;2022-12-13T03:10:58;-1.10;99.90
50989;DHT22;37008;52.210;21.112;2022-12-13T03:13:39;-1.10;99.90
50989;DHT22;37008;52.210;21.112;2022-12-13T03:18:56;-1.00;99.90
50989;DHT22;37008;52.210;21.112;2022-12-13T03:21:22;-1.00;99.90
50989;DHT22;37008;52.210;21.112;2022-12-13T03:23:48;-1.00;99.90
50989;DHT22;37008;52.210;21.112;2022-12-13T03:26:22;-1.00;99.90
50989;DHT22;37008;52.210;21.112;2022-12-13T03:28:48;-1.00;99.90
50989;DHT22;37008;52.210;21.112;2022-12-13T03:31:14;-1.00;99.90
50989;DHT22;37008;52.210;21.112;2022-12-13T03:33:39;-1.00;99.90
50989;DHT22;37008;52.210;21.112;2022-12-13T03:36:05;-1.00;99.90
50989;DHT22;37008;52.210;21.112;2022-12-13T03:38:31;-1.00;99.90
50989;DHT22;37008;52.210;21.112;2022-12-13T03:41:01;-0.90;99.90
50989;DHT22;37008;52.210;21.112;2022-12-13T03:43:27;-0.90;99.90
50989;DHT22;37008;52.210;21.112;2022-12-13T03:45:54;-0.90;99.90
50989;DHT22;37008;52.210;21.112;2022-12-13T03:48:20;-0.90;99.90
50989;DHT22;37008;52.210;21.112;2022-12-13T03:50:46;-0.90;99.90
50989;DHT22;37008;52.210;21.112;2022-12-13T03:53:11;-0.90;99.90
50989;DHT22;37008;52.210;21.112;2022-12-13T03:55:37;-0.90;99.90
50989;DHT22;37008;52.210;21.112;2022-12-13T03:58:03;-0.90;99.90
50989;DHT22;37008;52.210;21.112;2022-12-13T04:00:28;-0.90;99.90
50989;DHT22;37008;52.210;21.112;2022-12-13T04:02:54;-0.90;99.90
50989;DHT22;37008;52.210;21.112;2022-12-13T04:05:20;-0.90;99.90
50989;DHT22;37008;52.210;21.112;2022-12-13T04:07:46;-0.90;99.90
50989;DHT22;37008;52.210;21.112;2022-12-13T04:10:11;-0.90;99.90
50989;DHT22;37008;52.210;21.112;2022-12-13T04:12:37;-0.90;99.90
50989;DHT22;37008;52.210;21.112;2022-12-13T04:15:21;-0.90;99.90
50989;DHT22;37008;52.210;21.112;2022-12-13T04:17:46;-0.90;99.90
50989;DHT22;37008;52.210;21.112;2022-12-13T04:20:12;-0.90;99.90
50989;DHT22;37008;52.210;21.112;2022-12-13T04:22:37;-0.90;99.90
50989;DHT22;37008;52.210;21.112;2022-12-13T04:25:03;-0.90;99.90
50989;DHT22;37008;52.210;21.112;2022-12-13T04:27:29;-0.90;99.90
50989;DHT22;37008;52.210;21.112;2022-12-13T04:29:55;-0.90;99.90
50989;DHT22;37008;52.210;21.112;2022-12-13T04:32:21;-0.90;99.90
50989;DHT22;37008;52.210;21.112;2022-12-13T04:34:46;-0.90;99.90
50989;DHT22;37008;52.210;21.112;2022-12-13T04:37:12;-0.90;99.90
50989;DHT22;37008;52.210;21.112;2022-12-13T04:39:37;-0.90;99.90
50989;DHT22;37008;52.210;21.112;2022-12-13T04:42:04;-0.90;99.90
50989;DHT22;37008;52.210;21.112;2022-12-13T04:44:30;-1.00;99.90
50989;DHT22;37008;52.210;21.112;2022-12-13T04:46:56;-1.00;99.90
50989;DHT22;37008;52.210;21.112;2022-12-13T04:49:21;-1.00;99.90
50989;DHT22;37008;52.210;21.112;2022-12-13T04:51:47;-0.90;99.90
50989;DHT22;37008;52.210;21.112;2022-12-13T04:54:13;-1.00;99.90
50989;DHT22;37008;52.210;21.112;2022-12-13T04:56:38;-0.90;99.90
50989;DHT22;37008;52.210;21.112;2022-12-13T04:59:04;-1.00;99.90
50989;DHT22;37008;52.210;21.112;2022-12-13T05:01:29;-0.90;99.90
50989;DHT22;37008;52.210;21.112;2022-12-13T05:03:55;-0.90;99.90
50989;DHT22;37008;52.210;21.112;2022-12-13T05:06:20;-1.00;99.90
50989;DHT22;37008;52.210;21.112;2022-12-13T05:08:46;-1.00;99.90
50989;DHT22;37008;52.210;21.112;2022-12-13T05:11:12;-1.00;99.90
50989;DHT22;37008;52.210;21.112;2022-12-13T05:13:38;-1.00;99.90
50989;DHT22;37008;52.210;21.112;2022-12-13T05:16:06;-1.00;99.90
50989;DHT22;37008;52.210;21.112;2022-12-13T05:18:33;-1.00;99.90
50989;DHT22;37008;52.210;21.112;2022-12-13T05:21:04;-1.10;99.90
50989;DHT22;37008;52.210;21.112;2022-12-13T05:23:30;-1.10;99.90
50989;DHT22;37008;52.210;21.112;2022-12-13T05:25:56;-1.10;99.90
50989;DHT22;37008;52.210;21.112;2022-12-13T05:28:24;-1.20;99.90
50989;DHT22;37008;52.210;21.112;2022-12-13T05:30:52;-1.30;99.90
50989;DHT22;37008;52.210;21.112;2022-12-13T05:33:17;-1.30;99.90
50989;DHT22;37008;52.210;21.112;2022-12-13T05:35:43;-1.30;99.90
50989;DHT22;37008;52.210;21.112;2022-12-13T05:38:09;-1.30;99.90
50989;DHT22;37008;52.210;21.112;2022-12-13T05:40:34;-1.30;99.90
50989;DHT22;37008;52.210;21.112;2022-12-13T05:43:00;-1.20;99.90
50989;DHT22;37008;52.210;21.112;2022-12-13T05:45:26;-1.30;99.90
50989;DHT22;37008;52.210;21.112;2022-12-13T05:47:52;-1.30;99.90
50989;DHT22;37008;52.210;21.112;2022-12-13T05:50:18;-1.20;99.90
50989;DHT22;37008;52.210;21.112;2022-12-13T05:52:44;-1.30;99.90
50989;DHT22;37008;52.210;21.112;2022-12-13T05:55:10;-1.30;99.90
50989;DHT22;37008;52.210;21.112;2022-12-13T05:57:36;-1.30;99.90
50989;DHT22;37008;52.210;21.112;2022-12-13T06:00:04;-1.30;99.90
50989;DHT22;37008;52.210;21.112;2022-12-13T06:02:42;-1.30;99.90
50989;DHT22;37008;52.210;21.112;2022-12-13T06:05:09;-1.30;99.90
50989;DHT22;37008;52.210;21.112;2022-12-13T06:07:35;-1.30;99.90
50989;DHT22;37008;52.210;21.112;2022-12-13T06:10:02;-1.30;99.90
50989;DHT22;37008;52.210;21.112;2022-12-13T06:12:28;-1.30;99.90
50989;DHT22;37008;52.210;21.112;2022-12-13T06:14:54;-1.30;99.90
50989;DHT22;37008;52.210;21.112;2022-12-13T06:17:20;-1.40;99.90
50989;DHT22;37008;52.210;21.112;2022-12-13T06:19:49;-1.40;99.90
50989;DHT22;37008;52.210;21.112;2022-12-13T06:22:15;-1.40;99.90
50989;DHT22;37008;52.210;21.112;2022-12-13T06:24:40;-1.40;99.90
50989;DHT22;37008;52.210;21.112;2022-12-13T06:27:06;-1.40;99.90
50989;DHT22;37008;52.210;21.112;2022-12-13T06:29:31;-1.50;99.90
50989;DHT22;37008;52.210;21.112;2022-12-13T06:32:00;-1.50;99.90
50989;DHT22;37008;52.210;21.112;2022-12-13T06:34:26;-1.50;99.90
50989;DHT22;37008;52.210;21.112;2022-12-13T06:36:52;-1.50;99.90
50989;DHT22;37008;52.210;21.112;2022-12-13T06:39:18;-1.50;99.90
50989;DHT22;37008;52.210;21.112;2022-12-13T06:41:44;-1.60;99.90
50989;DHT22;37008;52.210;21.112;2022-12-13T06:44:10;-1.60;99.90
50989;DHT22;37008;52.210;21.112;2022-12-13T06:46:35;-1.60;99.90
50989;DHT22;37008;52.210;21.112;2022-12-13T06:49:01;-1.60;99.90
50989;DHT22;37008;52.210;21.112;2022-12-13T06:51:27;-1.70;99.90
50989;DHT22;37008;52.210;21.112;2022-12-13T06:53:52;-1.70;99.90
50989;DHT22;37008;52.210;21.112;2022-12-13T06:56:18;-1.70;99.90
50989;DHT22;37008;52.210;21.112;2022-12-13T06:58:44;-1.70;99.90
50989;DHT22;37008;52.210;21.112;2022-12-13T07:01:15;-1.60;99.90
50989;DHT22;37008;52.210;21.112;2022-12-13T07:03:41;-1.70;99.90
50989;DHT22;37008;52.210;21.112;2022-12-13T07:06:20;-1.70;99.90
50989;DHT22;37008;52.210;21.112;2022-12-13T07:08:54;-1.70;99.90
50989;DHT22;37008;52.210;21.112;2022-12-13T07:11:25;-1.70;99.90
50989;DHT22;37008;52.210;21.112;2022-12-13T07:13:51;-1.70;99.90
50989;DHT22;37008;52.210;21.112;2022-12-13T07:16:21;-1.70;99.90
50989;DHT22;37008;52.210;21.112;2022-12-13T07:18:49;-1.80;99.90
50989;DHT22;37008;52.210;21.112;2022-12-13T07:21:17;-1.80;99.90
50989;DHT22;37008;52.210;21.112;2022-12-13T07:23:43;-1.80;99.90
50989;DHT22;37008;52.210;21.112;2022-12-13T07:26:09;-1.80;99.90
50989;DHT22;37008;52.210;21.112;2022-12-13T07:28:35;-1.80;99.90
50989;DHT22;37008;52.210;21.112;2022-12-13T07:31:03;-1.80;99.90
50989;DHT22;37008;52.210;21.112;2022-12-13T07:33:29;-1.80;99.90
50989;DHT22;37008;52.210;21.112;2022-12-13T07:36:17;-1.80;99.90
50989;DHT22;37008;52.210;21.112;2022-12-13T07:38:43;-1.80;99.90
50989;DHT22;37008;52.210;21.112;2022-12-13T07:41:09;-1.80;99.90
50989;DHT22;37008;52.210;21.112;2022-12-13T07:43:35;-1.80;99.90
50989;DHT22;37008;52.210;21.112;2022-12-13T07:46:03;-1.80;99.90
50989;DHT22;37008;52.210;21.112;2022-12-13T07:48:29;-1.90;99.90
50989;DHT22;37008;52.210;21.112;2022-12-13T07:51:01;-1.80;99.90
50989;DHT22;37008;52.210;21.112;2022-12-13T07:53:27;-1.90;99.90
50989;DHT22;37008;52.210;21.112;2022-12-13T07:55:53;-1.80;99.90
50989;DHT22;37008;52.210;21.112;2022-12-13T07:58:19;-1.80;99.90
50989;DHT22;37008;52.210;21.112;2022-12-13T08:00:45;-1.80;99.90
50989;DHT22;37008;52.210;21.112;2022-12-13T08:03:11;-1.80;99.90
50989;DHT22;37008;52.210;21.112;2022-12-13T08:05:37;-1.80;99.90
50989;DHT22;37008;52.210;21.112;2022-12-13T08:08:05;-1.80;99.90
50989;DHT22;37008;52.210;21.112;2022-12-13T08:10:32;-1.80;99.90
50989;DHT22;37008;52.210;21.112;2022-12-13T08:13:00;-1.80;99.90
50989;DHT22;37008;52.210;21.112;2022-12-13T08:15:27;-1.80;99.90
50989;DHT22;37008;52.210;21.112;2022-12-13T08:17:54;-1.90;99.90
50989;DHT22;37008;52.210;21.112;2022-12-13T08:20:20;-1.80;99.90
50989;DHT22;37008;52.210;21.112;2022-12-13T08:22:53;-1.80;99.90
50989;DHT22;37008;52.210;21.112;2022-12-13T08:25:19;-1.80;99.90
50989;DHT22;37008;52.210;21.112;2022-12-13T08:27:45;-1.80;99.90
50989;DHT22;37008;52.210;21.112;2022-12-13T08:30:11;-1.80;99.90
50989;DHT22;37008;52.210;21.112;2022-12-13T08:32:36;-1.90;99.90
50989;DHT22;37008;52.210;21.112;2022-12-13T08:35:02;-1.90;99.90
50989;DHT22;37008;52.210;21.112;2022-12-13T08:37:27;-1.90;99.90
50989;DHT22;37008;52.210;21.112;2022-12-13T08:39:53;-1.80;99.90
50989;DHT22;37008;52.210;21.112;2022-12-13T08:42:32;-1.80;99.90
50989;DHT22;37008;52.210;21.112;2022-12-13T08:45:00;-1.80;99.90
50989;DHT22;37008;52.210;21.112;2022-12-13T08:47:26;-1.80;99.90
50989;DHT22;37008;52.210;21.112;2022-12-13T08:49:56;-1.70;99.90
50989;DHT22;37008;52.210;21.112;2022-12-13T08:52:26;-1.80;99.90
50989;DHT22;37008;52.210;21.112;2022-12-13T08:54:51;-1.70;99.90
50989;DHT22;37008;52.210;21.112;2022-12-13T08:57:17;-1.70;99.90
50989;DHT22;37008;52.210;21.112;2022-12-13T08:59:43;-1.70;99.90
50989;DHT22;37008;52.210;21.112;2022-12-13T09:02:13;-1.70;99.90
50989;DHT22;37008;52.210;21.112;2022-12-13T09:04:40;-1.70;99.90
50989;DHT22;37008;52.210;21.112;2022-12-13T09:07:06;-1.70;99.90
50989;DHT22;37008;52.210;21.112;2022-12-13T09:09:32;-1.80;99.90
50989;DHT22;37008;52.210;21.112;2022-12-13T09:11:57;-1.80;99.90
50989;DHT22;37008;52.210;21.112;2022-12-13T09:14:23;-1.80;99.90
50989;DHT22;37008;52.210;21.112;2022-12-13T09:16:49;-1.70;99.90
50989;DHT22;37008;52.210;21.112;2022-12-13T09:19:15;-1.70;99.90
50989;DHT22;37008;52.210;21.112;2022-12-13T09:21:41;-1.70;99.90
50989;DHT22;37008;52.210;21.112;2022-12-13T09:24:08;-1.70;99.90
50989;DHT22;37008;52.210;21.112;2022-12-13T09:26:53;-1.70;99.90
50989;DHT22;37008;52.210;21.112;2022-12-13T09:29:47;-1.70;99.90
50989;DHT22;37008;52.210;21.112;2022-12-13T09:32:15;-1.70;99.90
50989;DHT22;37008;52.210;21.112;2022-12-13T09:34:41;-1.70;99.90
50989;DHT22;37008;52.210;21.112;2022-12-13T09:37:07;-1.70;99.90
50989;DHT22;37008;52.210;21.112;2022-12-13T09:39:44;-1.80;99.90
50989;DHT22;37008;52.210;21.112;2022-12-13T09:42:23;-1.70;99.90
50989;DHT22;37008;52.210;21.112;2022-12-13T09:44:55;-1.70;99.90
50989;DHT22;37008;52.210;21.112;2022-12-13T09:47:43;-1.70;99.90
50989;DHT22;37008;52.210;21.112;2022-12-13T09:50:32;-1.70;99.90
50989;DHT22;37008;52.210;21.112;2022-12-13T09:53:00;-1.70;99.90
50989;DHT22;37008;52.210;21.112;2022-12-13T09:55:48;-1.70;99.90
50989;DHT22;37008;52.210;21.112;2022-12-13T09:58:35;-1.80;99.90
50989;DHT22;37008;52.210;21.112;2022-12-13T10:01:04;-1.80;99.90
50989;DHT22;37008;52.210;21.112;2022-12-13T10:03:30;-1.80;99.90
50989;DHT22;37008;52.210;21.112;2022-12-13T10:06:11;-1.80;99.90
50989;DHT22;37008;52.210;21.112;2022-12-13T10:08:47;-1.80;99.90
50989;DHT22;37008;52.210;21.112;2022-12-13T10:11:17;-1.70;99.90
50989;DHT22;37008;52.210;21.112;2022-12-13T10:14:08;-1.70;99.90
50989;DHT22;37008;52.210;21.112;2022-12-13T10:19:01;-1.80;99.90
50989;DHT22;37008;52.210;21.112;2022-12-13T10:21:34;-1.70;99.90
50989;DHT22;37008;52.210;21.112;2022-12-13T10:24:24;-1.70;99.90
50989;DHT22;37008;52.210;21.112;2022-12-13T10:26:52;-1.70;99.90
50989;DHT22;37008;52.210;21.112;2022-12-13T10:29:18;-1.70;99.90
50989;DHT22;37008;52.210;21.112;2022-12-13T10:31:47;-1.70;99.90
50989;DHT22;37008;52.210;21.112;2022-12-13T10:34:24;-1.70;99.90
50989;DHT22;37008;52.210;21.112;2022-12-13T10:36:51;-1.70;99.90
50989;DHT22;37008;52.210;21.112;2022-12-13T10:39:37;-1.80;99.90
50989;DHT22;37008;52.210;21.112;2022-12-13T10:42:13;-1.80;99.90
50989;DHT22;37008;52.210;21.112;2022-12-13T10:44:39;-1.80;99.90
50989;DHT22;37008;52.210;21.112;2022-12-13T10:47:19;-1.80;99.90
50989;DHT22;37008;52.210;21.112;2022-12-13T10:52:27;-1.90;99.90
50989;DHT22;37008;52.210;21.112;2022-12-13T10:54:55;-1.90;99.90
50989;DHT22;37008;52.210;21.112;2022-12-13T10:57:35;-1.90;99.90
50989;DHT22;37008;52.210;21.112;2022-12-13T11:00:01;-1.80;99.90
50989;DHT22;37008;52.210;21.112;2022-12-13T11:02:34;-1.80;99.90
50989;DHT22;37008;52.210;21.112;2022-12-13T11:08:23;-1.90;99.90
50989;DHT22;37008;52.210;21.112;2022-12-13T11:10:57;-1.90;99.90
50989;DHT22;37008;52.210;21.112;2022-12-13T11:16:30;-1.80;99.90
50989;DHT22;37008;52.210;21.112;2022-12-13T11:19:02;-1.80;99.90
50989;DHT22;37008;52.210;21.112;2022-12-13T11:21:33;-1.80;99.90
50989;DHT22;37008;52.210;21.112;2022-12-13T11:24:05;-1.80;99.90
50989;DHT22;37008;52.210;21.112;2022-12-13T11:26:34;-1.70;99.90
50989;DHT22;37008;52.210;21.112;2022-12-13T11:35:07;-1.40;99.90
50989;DHT22;37008;52.210;21.112;2022-12-13T11:37:53;-1.30;99.90
50989;DHT22;37008;52.210;21.112;2022-12-13T11:40:28;-1.20;99.90
50989;DHT22;37008;52.210;21.112;2022-12-13T11:46:03;-1.20;99.90
50989;DHT22;37008;52.210;21.112;2022-12-13T11:48:50;-1.30;99.90
50989;DHT22;37008;52.210;21.112;2022-12-13T11:51:57;-1.30;99.90
50989;DHT22;37008;52.210;21.112;2022-12-13T11:54:25;-1.40;99.90
50989;DHT22;37008;52.210;21.112;2022-12-13T11:56:55;-1.40;99.90
50989;DHT22;37008;52.210;21.112;2022-12-13T11:59:44;-1.40;99.90
50989;DHT22;37008;52.210;21.112;2022-12-13T12:04:51;-1.60;99.90
50989;DHT22;37008;52.210;21.112;2022-12-13T12:07:33;-1.70;99.90
50989;DHT22;37008;52.210;21.112;2022-12-13T12:12:41;-2.00;99.90
50989;DHT22;37008;52.210;21.112;2022-12-13T12:15:16;-2.10;99.90
50989;DHT22;37008;52.210;21.112;2022-12-13T12:17:43;-2.20;99.90
50989;DHT22;37008;52.210;21.112;2022-12-13T12:20:13;-2.20;99.90
50989;DHT22;37008;52.210;21.112;2022-12-13T12:22:54;-2.30;99.90
50989;DHT22;37008;52.210;21.112;2022-12-13T12:25:41;-2.30;99.90
50989;DHT22;37008;52.210;21.112;2022-12-13T12:28:28;-2.40;99.90
50989;DHT22;37008;52.210;21.112;2022-12-13T12:33:37;-2.50;99.90
50989;DHT22;37008;52.210;21.112;2022-12-13T12:41:34;-2.40;99.90
50989;DHT22;37008;52.210;21.112;2022-12-13T12:46:52;-2.30;99.90
50989;DHT22;37008;52.210;21.112;2022-12-13T12:49:31;-2.30;99.90
50989;DHT22;37008;52.210;21.112;2022-12-13T12:57:52;-2.40;99.90
50989;DHT22;37008;52.210;21.112;2022-12-13T13:00:21;-2.50;99.90
50989;DHT22;37008;52.210;21.112;2022-12-13T13:05:44;-2.70;99.90
50989;DHT22;37008;52.210;21.112;2022-12-13T13:08:18;-2.70;99.90
50989;DHT22;37008;52.210;21.112;2022-12-13T13:10:47;-2.70;99.90
50989;DHT22;37008;52.210;21.112;2022-12-13T13:16:02;-2.80;99.90
50989;DHT22;37008;52.210;21.112;2022-12-13T13:18:49;-2.90;99.90
50989;DHT22;37008;52.210;21.112;2022-12-13T13:21:32;-3.00;99.90
50989;DHT22;37008;52.210;21.112;2022-12-13T13:26:41;-3.00;99.90
50989;DHT22;37008;52.210;21.112;2022-12-13T13:34:46;-2.80;99.90
50989;DHT22;37008;52.210;21.112;2022-12-13T13:45:27;-2.30;99.90
50989;DHT22;37008;52.210;21.112;2022-12-13T14:23:29;-2.60;99.90
50989;DHT22;37008;52.210;21.112;2022-12-13T14:33:56;-2.90;99.90
50989;DHT22;37008;52.210;21.112;2022-12-13T14:36:33;-2.90;99.90
50989;DHT22;37008;52.210;21.112;2022-12-13T14:39:03;-3.00;99.90
50989;DHT22;37008;52.210;21.112;2022-12-13T14:41:29;-3.10;99.90
50989;DHT22;37008;52.210;21.112;2022-12-13T14:44:11;-3.10;99.90
50989;DHT22;37008;52.210;21.112;2022-12-13T14:46:47;-3.20;99.90
50989;DHT22;37008;52.210;21.112;2022-12-13T14:49:14;-3.20;99.90
50989;DHT22;37008;52.210;21.112;2022-12-13T14:51:40;-3.30;99.90
50989;DHT22;37008;52.210;21.112;2022-12-13T14:54:07;-3.30;99.90
50989;DHT22;37008;52.210;21.112;2022-12-13T14:56:32;-3.30;99.90
50989;DHT22;37008;52.210;21.112;2022-12-13T14:59:10;-3.40;99.90
50989;DHT22;37008;52.210;21.112;2022-12-13T15:01:37;-3.30;99.90
50989;DHT22;37008;52.210;21.112;2022-12-13T15:04:31;-3.40;99.90
50989;DHT22;37008;52.210;21.112;2022-12-13T15:07:21;-3.40;99.90
50989;DHT22;37008;52.210;21.112;2022-12-13T15:09:52;-3.40;99.90
50989;DHT22;37008;52.210;21.112;2022-12-13T15:12:19;-3.40;99.90
50989;DHT22;37008;52.210;21.112;2022-12-13T15:15:06;-3.40;99.90
50989;DHT22;37008;52.210;21.112;2022-12-13T15:17:36;-3.40;99.90
50989;DHT22;37008;52.210;21.112;2022-12-13T15:20:38;-3.40;99.90
50989;DHT22;37008;52.210;21.112;2022-12-13T15:23:12;-3.40;99.90
50989;DHT22;37008;52.210;21.112;2022-12-13T15:25:40;-3.40;99.90
50989;DHT22;37008;52.210;21.112;2022-12-13T15:28:08;-3.40;99.90
50989;DHT22;37008;52.210;21.112;2022-12-13T15:30:34;-3.40;99.90
50989;DHT22;37008;52.210;21.112;2022-12-13T15:33:17;-3.40;99.90
50989;DHT22;37008;52.210;21.112;2022-12-13T15:35:43;-3.40;99.90
50989;DHT22;37008;52.210;21.112;2022-12-13T15:38:12;-3.30;99.90
50989;DHT22;37008;52.210;21.112;2022-12-13T15:40:47;-3.30;99.90
50989;DHT22;37008;52.210;21.112;2022-12-13T15:43:17;-3.30;99.90
50989;DHT22;37008;52.210;21.112;2022-12-13T15:45:48;-3.30;99.90
50989;DHT22;37008;52.210;21.112;2022-12-13T15:48:22;-3.30;99.90
50989;DHT22;37008;52.210;21.112;2022-12-13T15:50:49;-3.30;99.90
50989;DHT22;37008;52.210;21.112;2022-12-13T15:53:26;-3.30;99.90
50989;DHT22;37008;52.210;21.112;2022-12-13T15:55:52;-3.30;99.90
50989;DHT22;37008;52.210;21.112;2022-12-13T15:58:28;-3.30;99.90
50989;DHT22;37008;52.210;21.112;2022-12-13T16:00:55;-3.30;99.90
50989;DHT22;37008;52.210;21.112;2022-12-13T16:03:24;-3.30;99.90
50989;DHT22;37008;52.210;21.112;2022-12-13T16:05:53;-3.30;99.90
50989;DHT22;37008;52.210;21.112;2022-12-13T16:08:31;-3.30;99.90
50989;DHT22;37008;52.210;21.112;2022-12-13T16:10:58;-3.30;99.90
50989;DHT22;37008;52.210;21.112;2022-12-13T16:13:29;-3.40;99.90
50989;DHT22;37008;52.210;21.112;2022-12-13T16:15:58;-3.30;99.90
50989;DHT22;37008;52.210;21.112;2022-12-13T16:18:29;-3.30;99.90
50989;DHT22;37008;52.210;21.112;2022-12-13T16:20:56;-3.30;99.90
50989;DHT22;37008;52.210;21.112;2022-12-13T16:23:23;-3.40;99.90
50989;DHT22;37008;52.210;21.112;2022-12-13T16:25:49;-3.40;99.90
50989;DHT22;37008;52.210;21.112;2022-12-13T16:28:16;-3.40;99.90
50989;DHT22;37008;52.210;21.112;2022-12-13T16:30:57;-3.40;99.90
50989;DHT22;37008;52.210;21.112;2022-12-13T16:33:25;-3.40;99.90
50989;DHT22;37008;52.210;21.112;2022-12-13T16:35:52;-3.40;99.90
50989;DHT22;37008;52.210;21.112;2022-12-13T16:38:18;-3.40;99.90
50989;DHT22;37008;52.210;21.112;2022-12-13T16:40:45;-3.30;99.90
50989;DHT22;37008;52.210;21.112;2022-12-13T16:43:17;-3.40;99.90
50989;DHT22;37008;52.210;21.112;2022-12-13T16:45:47;-3.30;99.90
50989;DHT22;37008;52.210;21.112;2022-12-13T16:48:14;-3.30;99.90
50989;DHT22;37008;52.210;21.112;2022-12-13T16:50:42;-3.30;99.90
50989;DHT22;37008;52.210;21.112;2022-12-13T16:53:09;-3.30;99.90
50989;DHT22;37008;52.210;21.112;2022-12-13T16:55:35;-3.20;99.90
50989;DHT22;37008;52.210;21.112;2022-12-13T16:58:04;-3.30;99.90
50989;DHT22;37008;52.210;21.112;2022-12-13T17:00:31;-3.20;99.90
50989;DHT22;37008;52.210;21.112;2022-12-13T17:02:57;-3.20;99.90
50989;DHT22;37008;52.210;21.112;2022-12-13T17:05:24;-3.20;99.90
50989;DHT22;37008;52.210;21.112;2022-12-13T17:07:50;-3.20;99.90
50989;DHT22;37008;52.210;21.112;2022-12-13T17:10:17;-3.20;99.90
50989;DHT22;37008;52.210;21.112;2022-12-13T17:12:43;-3.10;99.90
50989;DHT22;37008;52.210;21.112;2022-12-13T17:15:09;-3.20;99.90
50989;DHT22;37008;52.210;21.112;2022-12-13T17:17:36;-3.20;99.90
50989;DHT22;37008;52.210;21.112;2022-12-13T17:20:03;-3.10;99.90
50989;DHT22;37008;52.210;21.112;2022-12-13T17:22:29;-3.20;99.90
50989;DHT22;37008;52.210;21.112;2022-12-13T17:24:55;-3.20;99.90
50989;DHT22;37008;52.210;21.112;2022-12-13T17:27:20;-3.20;99.90
50989;DHT22;37008;52.210;21.112;2022-12-13T17:29:47;-3.20;99.90
50989;DHT22;37008;52.210;21.112;2022-12-13T17:32:12;-3.20;99.90
50989;DHT22;37008;52.210;21.112;2022-12-13T17:34:38;-3.10;99.90
50989;DHT22;37008;52.210;21.112;2022-12-13T17:37:04;-3.20;99.90
50989;DHT22;37008;52.210;21.112;2022-12-13T17:39:30;-3.20;99.90